Time;durP1;ratioP1;P1;durP2;ratioP2;P2;SDS_P1;SDS_P2;PMS_P1;PMS_P2;Temp;Humidity;BMP_temperature;BMP_pressure;BME280_temperature;BME280_humidity;BME280_pressure;Samples;Min_cycle;Max_cycle;Signal;HPM_P1;HPM_P2
2022/08/15 00:00:04;;;;;;;8.52;7.60;;;;;;;22.80;64.96;100034.44;172122;28;928;-63
2022/08/15 00:00:13;;;;;;;8.53;7.70;;;;;;;22.79;64.94;100033.63;172074;28;963;-63
2022/08/15 00:00:20;;;;;;;8.72;7.90;;;;;;;22.80;64.67;100029.97;172058;28;970;-62
2022/08/15 00:00:29;;;;;;;8.63;7.83;;;;;;;22.80;64.58;100035.28;172092;28;880;-62
2022/08/15 00:00:43;;;;;;;8.63;7.83;;;;;;;22.82;64.66;100035.13;171879;28;1346;-63
2022/08/15 00:00:50;;;;;;;8.66;7.80;;;;;;;22.82;64.69;100033.28;172061;28;1302;-62
2022/08/15 00:00:56;;;;;;;8.70;7.73;;;;;;;22.82;64.50;100027.97;172101;28;887;-62
2022/08/15 00:01:10;;;;;;;9.10;7.60;;;;;;;22.82;64.60;100035.13;172138;28;888;-62
2022/08/15 00:01:22;;;;;;;9.35;7.74;;;;;;;22.81;65.02;100034.28;172395;28;2256;-63
2022/08/15 00:01:36;;;;;;;9.73;7.81;;;;;;;22.83;64.80;100034.13;172776;28;1222;-62
2022/08/15 00:01:42;;;;;;;8.94;7.93;;;;;;;22.82;64.83;100022.63;172711;28;1220;-62
2022/08/15 00:01:47;;;;;;;8.67;7.77;;;;;;;22.81;64.64;100033.44;172746;28;910;-62
2022/08/15 00:01:53;;;;;;;8.70;7.80;;;;;;;22.82;64.94;100029.81;172724;28;1085;-62
2022/08/15 00:02:00;;;;;;;8.50;7.63;;;;;;;22.82;64.82;100027.97;172802;28;1053;-62
2022/08/15 00:02:06;;;;;;;8.77;7.70;;;;;;;22.81;64.52;100026.31;172826;28;895;-62
2022/08/15 00:02:12;;;;;;;9.43;7.80;;;;;;;22.83;64.48;100028.81;173346;28;1389;-63
2022/08/15 00:02:18;;;;;;;9.80;7.78;;;;;;;22.83;64.64;100029.66;173443;28;934;-62
2022/08/15 00:02:23;;;;;;;9.53;7.70;;;;;;;22.84;64.56;100025.13;173419;28;887;-62
2022/08/15 00:02:29;;;;;;;9.88;7.90;;;;;;;22.84;64.49;100023.31;173353;28;1054;-62
2022/08/15 00:02:34;;;;;;;9.43;7.70;;;;;;;22.84;64.47;100030.47;173449;28;1041;-62
2022/08/15 00:02:43;;;;;;;9.13;7.77;;;;;;;22.85;64.34;100026.81;172681;28;1664;-62
2022/08/15 00:02:49;;;;;;;8.80;7.90;;;;;;;22.86;64.26;100023.16;172754;28;1028;-62
2022/08/15 00:02:57;;;;;;;8.90;8.00;;;;;;;22.87;64.29;100022.16;172757;28;891;-62
2022/08/15 00:03:04;;;;;;;9.10;8.13;;;;;;;22.87;64.15;100025.66;172806;28;1194;-62
2022/08/15 00:03:27;;;;;;;9.44;8.10;;;;;;;22.86;64.08;100029.28;172756;28;1018;-63
2022/08/15 00:03:38;;;;;;;8.94;7.90;;;;;;;22.87;64.09;100023.00;172763;28;1212;-62
2022/08/15 00:03:51;;;;;;;8.67;7.84;;;;;;;22.87;64.11;100024.81;172639;28;1238;-63
2022/08/15 00:03:59;;;;;;;8.96;8.07;;;;;;;22.89;64.00;100023.66;172756;28;1222;-62
2022/08/15 00:04:07;;;;;;;9.24;8.33;;;;;;;22.89;63.95;100023.66;172746;28;1086;-62
2022/08/15 00:04:14;;;;;;;9.20;8.30;;;;;;;22.89;64.14;100028.16;172730;28;966;-62
2022/08/15 00:04:19;;;;;;;9.13;8.23;;;;;;;22.89;63.79;100026.31;172782;28;974;-63
2022/08/15 00:04:25;;;;;;;9.00;8.10;;;;;;;22.89;63.86;100034.28;172763;28;927;-62
2022/08/15 00:04:30;;;;;;;8.97;8.03;;;;;;;22.90;64.05;100030.63;172777;28;843;-63
2022/08/15 00:04:35;;;;;;;9.10;8.02;;;;;;;22.89;64.07;100028.97;171973;28;1314;-62
2022/08/15 00:04:41;;;;;;;8.80;7.90;;;;;;;22.90;63.84;100024.50;172745;28;847;-62
2022/08/15 00:04:47;;;;;;;8.75;7.90;;;;;;;22.88;63.97;100024.66;172767;28;966;-62
2022/08/15 00:04:52;;;;;;;8.83;7.93;;;;;;;22.90;64.02;100029.81;172741;28;919;-62
2022/08/15 00:04:57;;;;;;;8.85;7.95;;;;;;;22.89;63.97;100028.97;172747;28;1058;-63
2022/08/15 00:05:03;;;;;;;8.80;7.93;;;;;;;22.89;63.88;100034.28;172789;28;1038;-62
2022/08/15 00:05:13;;;;;;;9.10;8.10;;;;;;;22.90;64.03;100029.81;172757;28;879;-62
2022/08/15 00:05:22;;;;;;;9.00;7.93;;;;;;;22.89;63.94;100028.97;172709;28;1157;-62
2022/08/15 00:05:33;;;;;;;8.62;7.72;;;;;;;22.90;64.12;100025.28;172741;28;1081;-62
2022/08/15 00:05:41;;;;;;;8.17;7.37;;;;;;;22.91;64.11;100028.81;172776;28;1007;-62
2022/08/15 00:05:47;;;;;;;8.47;7.50;;;;;;;22.92;64.10;100021.66;171927;28;1516;-62
2022/08/15 00:05:58;;;;;;;8.65;7.65;;;;;;;22.92;64.17;100032.31;172068;28;1102;-62
2022/08/15 00:06:12;;;;;;;9.40;7.88;;;;;;;22.91;64.16;100026.13;172106;28;1231;-62
2022/08/15 00:06:23;;;;;;;9.02;7.99;;;;;;;22.92;64.23;100027.78;172078;28;1224;-62
2022/08/15 00:06:34;;;;;;;8.69;7.79;;;;;;;22.92;64.31;100027.78;172051;28;1228;-63
2022/08/15 00:06:45;;;;;;;9.35;7.81;;;;;;;22.92;64.16;100025.13;172728;28;1209;-62
2022/08/15 00:06:50;;;;;;;9.23;7.63;;;;;;;22.92;64.36;100021.66;172723;28;1233;-62
2022/08/15 00:06:56;;;;;;;10.33;7.70;;;;;;;22.93;64.25;100020.66;172752;28;1261;-62
2022/08/15 00:07:04;;;;;;;9.87;7.57;;;;;;;22.92;64.45;100021.66;172692;28;1657;-62
2022/08/15 00:07:09;;;;;;;9.05;7.42;;;;;;;22.94;64.49;100027.63;172745;28;966;-62
2022/08/15 00:07:14;;;;;;;9.07;7.40;;;;;;;22.92;64.50;100033.13;172744;28;852;-62
2022/08/15 00:07:21;;;;;;;9.73;7.57;;;;;;;22.92;64.60;100026.97;172746;28;1089;-63
2022/08/15 00:07:26;;;;;;;8.70;7.43;;;;;;;22.92;64.59;100026.97;172740;28;915;-63
2022/08/15 00:07:31;;;;;;;8.45;7.30;;;;;;;22.91;64.70;100020.81;172789;28;963;-62
2022/08/15 00:07:37;;;;;;;8.70;7.20;;;;;;;22.93;64.76;100033.97;172764;28;856;-62
2022/08/15 00:07:43;;;;;;;8.03;7.20;;;;;;;22.90;64.82;100027.97;172762;28;926;-62
2022/08/15 00:07:49;;;;;;;8.00;7.18;;;;;;;22.89;64.72;100023.66;173451;28;1038;-62
2022/08/15 00:07:55;;;;;;;8.00;7.27;;;;;;;22.89;64.89;100025.50;173385;28;954;-62
2022/08/15 00:08:00;;;;;;;8.47;7.63;;;;;;;22.88;64.84;100027.31;173373;28;922;-62
2022/08/15 00:08:06;;;;;;;9.00;7.97;;;;;;;22.87;64.80;100025.66;173424;28;1058;-62
2022/08/15 00:08:12;;;;;;;9.73;8.05;;;;;;;22.86;64.83;100023.97;173448;28;990;-63
2022/08/15 00:08:18;;;;;;;11.10;8.23;;;;;;;22.86;64.78;100029.28;173476;28;816;-62
2022/08/15 00:08:25;;;;;;;12.00;8.40;;;;;;;22.84;64.74;100028.63;173434;28;848;-62
2022/08/15 00:08:37;;;;;;;11.42;8.22;;;;;;;22.84;64.91;100031.31;173482;28;964;-63
2022/08/15 00:08:49;;;;;;;10.38;8.16;;;;;;;22.81;65.18;100026.31;173416;28;1370;-63
2022/08/15 00:08:58;;;;;;;9.29;8.30;;;;;;;22.71;65.68;100020.31;173421;28;1219;-62
2022/08/15 00:09:12;;;;;;;9.76;8.31;;;;;;;22.61;65.84;100026.63;172821;28;1070;-62
2022/08/15 00:09:22;;;;;;;9.14;8.10;;;;;;;22.57;66.06;100025.28;173332;28;1531;-63
2022/08/15 00:09:28;;;;;;;9.51;8.04;;;;;;;22.52;66.21;100024.94;173410;28;1225;-63
2022/08/15 00:09:33;;;;;;;9.10;8.20;;;;;;;22.47;66.23;100028.06;173465;28;938;-62
2022/08/15 00:09:39;;;;;;;9.20;8.27;;;;;;;22.45;66.40;100026.56;173415;28;922;-62
2022/08/15 00:09:45;;;;;;;9.27;8.30;;;;;;;22.42;66.73;100032.22;173443;28;903;-63
2022/08/15 00:09:50;;;;;;;9.07;8.13;;;;;;;22.38;66.75;100024.56;173411;28;1063;-63
2022/08/15 00:09:56;;;;;;;9.07;8.13;;;;;;;22.36;66.86;100023.91;173417;28;923;-63
2022/08/15 00:10:01;;;;;;;8.90;8.00;;;;;;;22.34;66.85;100028.53;173427;28;855;-63
2022/08/15 00:10:09;;;;;;;8.90;8.00;;;;;;;22.32;66.98;100022.56;173413;28;1054;-62
2022/08/15 00:10:20;;;;;;;8.87;8.00;;;;;;;22.30;67.09;100021.88;173392;28;1168;-62
2022/08/15 00:10:26;;;;;;;8.98;8.18;;;;;;;22.29;67.55;100022.88;173293;28;1294;-62
2022/08/15 00:10:31;;;;;;;9.12;8.22;;;;;;;22.29;67.27;100022.03;173463;28;967;-63
2022/08/15 00:10:37;;;;;;;9.10;8.20;;;;;;;22.32;66.96;100024.38;173440;28;919;-62
2022/08/15 00:10:45;;;;;;;9.07;8.17;;;;;;;22.31;67.26;100025.38;173445;28;1159;-63
2022/08/15 00:10:50;;;;;;;8.92;8.00;;;;;;;22.29;67.36;100028.19;173420;28;951;-62
2022/08/15 00:11:02;;;;;;;9.17;8.03;;;;;;;22.27;67.52;100022.19;173363;28;851;-62
2022/08/15 00:11:15;;;;;;;8.92;8.02;;;;;;;22.25;67.54;100027.69;173435;28;1237;-62
2022/08/15 00:11:35;;;;;;;9.02;8.18;;;;;;;22.34;66.85;100023.22;173400;28;1379;-62
2022/08/15 00:11:47;;;;;;;9.52;8.61;;;;;;;22.43;66.65;100023.22;173296;28;3020;-63
2022/08/15 00:11:57;;;;;;;10.08;9.10;;;;;;;22.51;66.32;100023.25;173411;28;1242;-62
2022/08/15 00:12:02;;;;;;;10.13;9.13;;;;;;;22.56;66.24;100022.78;173407;28;1081;-62
2022/08/15 00:12:08;;;;;;;10.15;9.10;;;;;;;22.58;65.99;100026.13;173341;28;1066;-62
2022/08/15 00:12:13;;;;;;;10.03;8.90;;;;;;;22.59;65.77;100019.81;173437;28;903;-62
2022/08/15 00:12:19;;;;;;;9.93;8.82;;;;;;;22.61;65.85;100031.09;173409;28;1041;-62
2022/08/15 00:12:24;;;;;;;10.33;8.70;;;;;;;22.61;65.93;100023.97;173430;28;1022;-62
2022/08/15 00:12:30;;;;;;;9.95;8.65;;;;;;;22.62;65.81;100025.63;173453;28;855;-62
2022/08/15 00:12:38;;;;;;;9.57;8.57;;;;;;;22.63;65.73;100029.97;173487;28;1038;-62
2022/08/15 00:12:44;;;;;;;9.34;8.44;;;;;;;22.63;65.92;100029.97;173432;28;1051;-62
2022/08/15 00:12:50;;;;;;;9.30;8.40;;;;;;;22.64;65.85;100025.47;173344;28;1026;-62
2022/08/15 00:13:00;;;;;;;9.30;8.40;;;;;;;22.62;65.98;100028.28;172628;28;887;-62
2022/08/15 00:13:18;;;;;;;9.44;8.47;;;;;;;22.63;66.06;100029.97;172726;28;1040;-62
2022/08/15 00:13:28;;;;;;;9.36;8.40;;;;;;;22.60;66.29;100032.09;172726;28;1217;-62
2022/08/15 00:13:34;;;;;;;9.38;8.48;;;;;;;22.56;66.28;100028.13;172759;28;1221;-62
2022/08/15 00:13:41;;;;;;;9.40;8.50;;;;;;;22.50;66.50;100029.56;172763;28;987;-62
2022/08/15 00:13:52;;;;;;;9.38;8.48;;;;;;;22.51;66.37;100034.72;171962;28;1058;-62
2022/08/15 00:14:11;;;;;;;9.45;8.55;;;;;;;22.58;66.00;100034.91;172090;28;1214;-63
2022/08/15 00:14:39;;;;;;;9.77;8.50;;;;;;;22.62;65.58;100036.25;171970;28;1226;-62
2022/08/15 00:14:44;;;;;;;9.45;8.23;;;;;;;22.69;65.83;100032.94;171522;28;1500;-63
2022/08/15 00:14:50;;;;;;;9.85;8.13;;;;;;;22.69;65.66;100035.59;172092;28;704;-62
2022/08/15 00:14:56;;;;;;;10.88;8.30;;;;;;;22.70;65.62;100031.94;172631;28;1010;-62
2022/08/15 00:15:11;;;;;;;10.63;8.20;;;;;;;22.71;65.73;100029.13;172791;28;836;-62
2022/08/15 00:15:19;;;;;;;10.32;8.07;;;;;;;22.73;65.69;100035.13;172709;28;1269;-62
2022/08/15 00:15:24;;;;;;;9.67;8.23;;;;;;;22.73;65.56;100034.28;172749;28;1077;-62
2022/08/15 00:15:30;;;;;;;10.00;8.30;;;;;;;22.74;65.70;100035.94;172741;28;1058;-62
2022/08/15 00:15:35;;;;;;;10.35;8.43;;;;;;;22.75;65.66;100034.97;172711;28;1067;-62
2022/08/15 00:15:42;;;;;;;10.37;8.53;;;;;;;22.76;65.97;100039.28;172723;28;1038;-62
2022/08/15 00:15:51;;;;;;;10.77;8.83;;;;;;;22.76;65.56;100037.44;173441;28;1061;-62
2022/08/15 00:15:56;;;;;;;10.30;8.76;;;;;;;22.78;65.68;100042.59;173418;28;1053;-62
2022/08/15 00:16:04;;;;;;;9.90;8.70;;;;;;;22.77;65.49;100035.63;173456;28;1021;-62
2022/08/15 00:16:13;;;;;;;10.16;8.66;;;;;;;22.78;65.42;100042.59;173438;28;915;-62
2022/08/15 00:16:19;;;;;;;9.85;8.59;;;;;;;22.78;65.51;100037.25;173386;28;1134;-62
2022/08/15 00:16:25;;;;;;;9.95;8.57;;;;;;;22.79;65.43;100038.09;173419;28;875;-62
2022/08/15 00:16:36;;;;;;;10.43;8.65;;;;;;;22.79;65.41;100043.44;173420;28;938;-62
2022/08/15 00:16:44;;;;;;;11.10;8.54;;;;;;;22.79;65.41;100038.94;173401;28;1251;-62
2022/08/15 00:16:50;;;;;;;11.77;8.42;;;;;;;22.79;65.45;100036.28;173406;28;986;-62
2022/08/15 00:16:59;;;;;;;11.55;8.30;;;;;;;22.81;65.29;100038.75;173439;28;1030;-62
2022/08/15 00:17:09;;;;;;;11.23;8.43;;;;;;;22.80;65.19;100037.09;173422;28;1074;-62
2022/08/15 00:17:15;;;;;;;10.13;8.66;;;;;;;22.80;65.33;100042.41;173421;28;1219;-63
2022/08/15 00:17:20;;;;;;;9.80;8.80;;;;;;;22.80;65.40;100040.59;173443;28;921;-62
2022/08/15 00:17:26;;;;;;;9.67;8.73;;;;;;;22.80;65.25;100037.09;173358;28;874;-62
2022/08/15 00:17:31;;;;;;;9.52;8.63;;;;;;;22.82;65.15;100048.44;173261;28;1902;-61
2022/08/15 00:17:40;;;;;;;9.43;8.50;;;;;;;22.81;65.09;100036.09;173458;28;938;-62
2022/08/15 00:17:48;;;;;;;9.90;8.48;;;;;;;22.81;65.29;100039.59;173433;28;997;-62
2022/08/15 00:17:53;;;;;;;9.88;8.37;;;;;;;22.80;65.25;100040.59;173427;28;957;-62
2022/08/15 00:17:58;;;;;;;10.57;8.35;;;;;;;22.79;65.17;100033.63;173424;28;879;-62
2022/08/15 00:18:04;;;;;;;10.83;8.33;;;;;;;22.81;65.24;100038.75;173465;28;831;-62
2022/08/15 00:18:10;;;;;;;9.73;8.30;;;;;;;22.80;65.40;100034.44;173429;28;926;-62
2022/08/15 00:18:18;;;;;;;9.80;8.37;;;;;;;22.79;65.56;100044.28;173457;28;966;-62
2022/08/15 00:18:28;;;;;;;10.70;8.55;;;;;;;22.78;65.79;100039.94;173251;28;1289;-62
2022/08/15 00:18:34;;;;;;;10.21;8.69;;;;;;;22.77;65.82;100036.47;173434;28;2210;-62
2022/08/15 00:18:41;;;;;;;9.57;8.48;;;;;;;22.77;65.72;100043.59;173430;28;1078;-62
2022/08/15 00:18:49;;;;;;;9.27;8.37;;;;;;;22.76;65.76;100040.09;173440;28;974;-62
2022/08/15 00:18:54;;;;;;;9.22;8.32;;;;;;;22.76;65.69;100040.09;172620;28;1100;-62
2022/08/15 00:19:07;;;;;;;9.13;8.23;;;;;;;22.77;65.86;100038.28;172688;28;1034;-62
2022/08/15 00:19:19;;;;;;;9.41;8.41;;;;;;;22.79;65.55;100038.94;172722;28;1217;-62
2022/08/15 00:19:29;;;;;;;9.89;8.46;;;;;;;22.77;65.54;100033.78;172566;28;1787;-64
2022/08/15 00:19:46;;;;;;;10.17;8.46;;;;;;;22.79;65.57;100036.28;172755;28;1253;-62
2022/08/15 00:19:52;;;;;;;9.40;8.45;;;;;;;22.80;65.57;100035.28;172732;28;1217;-62
2022/08/15 00:19:57;;;;;;;9.17;8.37;;;;;;;22.79;65.72;100036.28;172754;28;851;-62
2022/08/15 00:20:05;;;;;;;9.30;8.43;;;;;;;22.80;65.57;100039.75;172761;28;986;-62
2022/08/15 00:20:12;;;;;;;9.44;8.54;;;;;;;22.80;65.49;100037.94;172727;28;1002;-62
2022/08/15 00:20:18;;;;;;;9.45;8.48;;;;;;;22.79;65.45;100038.94;172743;28;1179;-61
2022/08/15 00:20:23;;;;;;;9.88;8.68;;;;;;;22.78;65.61;100042.59;172719;28;856;-62
2022/08/15 00:20:29;;;;;;;10.50;8.67;;;;;;;22.78;65.49;100037.25;172687;28;1014;-62
2022/08/15 00:20:37;;;;;;;11.23;8.67;;;;;;;22.79;65.58;100044.28;172038;28;946;-62
2022/08/15 00:20:43;;;;;;;10.61;8.40;;;;;;;22.79;65.52;100038.94;172036;28;1055;-61
2022/08/15 00:20:48;;;;;;;9.53;8.23;;;;;;;22.79;65.61;100038.94;172078;28;1030;-62
2022/08/15 00:20:54;;;;;;;10.55;8.23;;;;;;;22.76;65.84;100033.97;172549;28;856;-62
2022/08/15 00:21:03;;;;;;;9.68;8.20;;;;;;;22.75;65.84;100033.13;172745;28;915;-62
2022/08/15 00:21:10;;;;;;;10.01;8.33;;;;;;;22.73;65.78;100034.28;171942;28;1229;-61
2022/08/15 00:21:20;;;;;;;10.46;8.54;;;;;;;22.66;65.74;100034.13;172075;28;903;-62
2022/08/15 00:21:26;;;;;;;9.80;8.51;;;;;;;22.68;65.89;100036.63;172037;28;1170;-61
2022/08/15 00:21:32;;;;;;;9.63;8.37;;;;;;;22.69;65.69;100038.28;172063;28;1089;-61
2022/08/15 00:21:45;;;;;;;9.87;8.30;;;;;;;22.68;65.85;100034.78;172074;28;884;-62
2022/08/15 00:21:55;;;;;;;9.35;8.20;;;;;;;22.71;65.84;100042.41;171246;28;1226;-62
2022/08/15 00:22:06;;;;;;;9.50;8.27;;;;;;;22.73;65.60;100031.63;171332;28;1136;-62
2022/08/15 00:22:12;;;;;;;9.33;8.41;;;;;;;22.74;65.66;100030.63;171961;28;1379;-61
2022/08/15 00:22:17;;;;;;;9.83;8.57;;;;;;;22.74;65.42;100036.78;172076;28;935;-61
2022/08/15 00:22:23;;;;;;;10.18;8.55;;;;;;;22.76;65.42;100036.63;172055;28;927;-62
2022/08/15 00:22:28;;;;;;;10.90;8.48;;;;;;;22.76;65.57;100033.97;172010;28;940;-62
2022/08/15 00:22:34;;;;;;;10.90;8.30;;;;;;;22.77;65.43;100038.28;172103;28;939;-62
2022/08/15 00:22:46;;;;;;;10.52;8.20;;;;;;;22.76;65.29;100037.44;172027;28;859;-62
2022/08/15 00:22:52;;;;;;;9.55;8.34;;;;;;;22.77;65.48;100040.94;172078;28;1215;-61
2022/08/15 00:22:57;;;;;;;9.18;8.23;;;;;;;22.77;65.25;100046.25;172050;28;1112;-62
2022/08/15 00:23:07;;;;;;;9.10;8.17;;;;;;;22.75;65.30;100033.13;172049;28;825;-62
2022/08/15 00:23:17;;;;;;;8.93;8.03;;;;;;;22.72;65.43;100033.44;172772;28;892;-62
2022/08/15 00:23:26;;;;;;;8.99;8.10;;;;;;;22.74;65.36;100035.94;172731;28;1133;-61
2022/08/15 00:23:32;;;;;;;9.19;8.37;;;;;;;22.74;65.18;100033.28;172727;28;1048;-62
2022/08/15 00:23:41;;;;;;;9.30;8.50;;;;;;;22.74;65.46;100030.63;172768;28;975;-62
2022/08/15 00:23:47;;;;;;;9.49;8.63;;;;;;;22.74;65.32;100035.94;172742;28;1052;-62
2022/08/15 00:23:55;;;;;;;9.35;8.45;;;;;;;22.76;65.14;100036.63;172770;28;864;-61
2022/08/15 00:24:01;;;;;;;9.34;8.44;;;;;;;22.76;65.22;100034.78;172634;28;1214;-62
2022/08/15 00:24:07;;;;;;;9.50;8.55;;;;;;;22.76;65.07;100037.44;172815;28;966;-62
2022/08/15 00:24:18;;;;;;;9.53;8.60;;;;;;;22.77;65.12;100036.47;173456;28;911;-61
2022/08/15 00:24:30;;;;;;;9.57;8.61;;;;;;;22.78;65.20;100037.25;173393;28;1227;-62
2022/08/15 00:24:37;;;;;;;9.63;8.60;;;;;;;22.79;65.20;100035.44;173389;28;1216;-61
2022/08/15 00:24:46;;;;;;;9.54;8.54;;;;;;;22.79;65.26;100038.94;173431;28;915;-62
2022/08/15 00:24:52;;;;;;;9.44;8.43;;;;;;;22.79;65.49;100036.28;173417;28;1035;-62
2022/08/15 00:24:57;;;;;;;9.40;8.27;;;;;;;22.78;65.52;100042.59;173428;28;927;-62
2022/08/15 00:25:03;;;;;;;9.13;8.23;;;;;;;22.76;65.70;100034.78;173414;28;896;-62
2022/08/15 00:25:09;;;;;;;8.98;8.05;;;;;;;22.75;65.77;100038.44;173413;28;1045;-62
2022/08/15 00:25:16;;;;;;;9.05;8.02;;;;;;;22.73;65.69;100028.97;173395;28;993;-62
2022/08/15 00:25:22;;;;;;;9.40;8.18;;;;;;;22.73;65.79;100039.59;173392;28;1156;-62
2022/08/15 00:25:29;;;;;;;9.30;8.30;;;;;;;22.71;65.70;100025.63;173390;28;1009;-62
2022/08/15 00:25:37;;;;;;;9.98;8.50;;;;;;;22.71;65.36;100030.94;173456;28;973;-62
2022/08/15 00:25:49;;;;;;;10.35;8.50;;;;;;;22.72;65.51;100037.94;173404;28;967;-61
2022/08/15 00:25:59;;;;;;;10.96;8.44;;;;;;;22.73;65.61;100028.97;173407;28;1249;-62
2022/08/15 00:26:05;;;;;;;10.79;8.13;;;;;;;22.73;65.66;100032.47;172844;28;1230;-62
2022/08/15 00:26:13;;;;;;;10.30;8.13;;;;;;;22.73;65.55;100031.63;172767;28;923;-62
2022/08/15 00:26:19;;;;;;;9.77;8.13;;;;;;;22.72;65.51;100029.97;172843;28;906;-62
2022/08/15 00:26:24;;;;;;;9.47;8.17;;;;;;;22.72;65.64;100028.13;172827;28;895;-62
2022/08/15 00:26:30;;;;;;;9.63;8.32;;;;;;;22.73;65.64;100034.28;172821;28;934;-62
2022/08/15 00:26:35;;;;;;;10.20;8.40;;;;;;;22.72;65.60;100027.31;172822;28;1030;-62
2022/08/15 00:26:40;;;;;;;9.75;8.25;;;;;;;22.70;65.92;100034.59;172716;28;868;-62
2022/08/15 00:26:48;;;;;;;9.70;8.17;;;;;;;22.69;65.81;100032.94;172796;28;922;-62
2022/08/15 00:26:57;;;;;;;9.43;8.22;;;;;;;22.67;66.09;100029.59;172746;28;998;-62
2022/08/15 00:27:07;;;;;;;9.44;7.94;;;;;;;22.59;66.67;100033.09;172808;28;1054;-62
2022/08/15 00:27:12;;;;;;;10.43;7.86;;;;;;;22.50;66.47;100029.56;172638;28;1490;-62
2022/08/15 00:27:20;;;;;;;10.93;8.07;;;;;;;22.45;66.75;100026.56;172664;28;1042;-62
2022/08/15 00:27:26;;;;;;;11.28;8.23;;;;;;;22.41;66.86;100030.56;171964;28;1193;-62
2022/08/15 00:27:31;;;;;;;10.63;8.33;;;;;;;22.41;66.81;100035.88;172066;28;848;-62
2022/08/15 00:27:36;;;;;;;10.32;8.45;;;;;;;22.40;66.88;100028.91;172118;28;864;-62
2022/08/15 00:27:42;;;;;;;10.30;8.40;;;;;;;22.36;66.65;100034.53;172067;28;1038;-62
2022/08/15 00:27:48;;;;;;;9.50;8.30;;;;;;;22.34;67.04;100031.19;172064;28;1206;-62
2022/08/15 00:27:53;;;;;;;9.23;8.20;;;;;;;22.32;66.93;100035.84;172053;28;1134;-62
2022/08/15 00:27:58;;;;;;;9.10;8.13;;;;;;;22.35;66.84;100030.19;172056;28;1105;-62
2022/08/15 00:28:06;;;;;;;9.43;8.40;;;;;;;22.40;66.87;100028.91;172102;28;967;-62
2022/08/15 00:28:11;;;;;;;9.88;8.48;;;;;;;22.41;66.57;100035.88;172036;28;1155;-62
2022/08/15 00:28:17;;;;;;;10.07;8.47;;;;;;;22.43;66.57;100031.22;171285;28;983;-62
2022/08/15 00:28:27;;;;;;;10.48;8.50;;;;;;;22.44;66.28;100032.91;171365;28;924;-62
2022/08/15 00:28:32;;;;;;;10.89;8.52;;;;;;;22.49;66.21;100027.91;171386;28;1183;-62
2022/08/15 00:28:37;;;;;;;10.30;8.47;;;;;;;22.53;66.16;100029.25;171416;28;1034;-62
2022/08/15 00:28:43;;;;;;;9.77;8.50;;;;;;;22.53;66.14;100029.25;171353;28;1018;-62
2022/08/15 00:28:49;;;;;;;9.43;8.43;;;;;;;22.51;66.12;100031.22;171397;28;864;-62
2022/08/15 00:28:54;;;;;;;9.30;8.40;;;;;;;22.49;66.24;100031.41;171422;28;967;-62
2022/08/15 00:29:02;;;;;;;9.55;8.48;;;;;;;22.51;66.18;100036.53;171391;28;1046;-61
2022/08/15 00:29:07;;;;;;;9.54;8.50;;;;;;;22.48;66.15;100032.38;171408;28;1021;-62
2022/08/15 00:29:13;;;;;;;9.48;8.48;;;;;;;22.45;66.76;100037.22;171936;28;931;-62
2022/08/15 00:29:22;;;;;;;9.52;8.50;;;;;;;22.43;66.67;100028.56;172063;28;946;-62
2022/08/15 00:29:31;;;;;;;9.20;8.30;;;;;;;22.48;66.27;100031.56;172655;28;938;-63
2022/08/15 00:29:37;;;;;;;9.09;8.25;;;;;;;22.50;65.94;100026.91;172753;28;1142;-63
2022/08/15 00:29:43;;;;;;;8.95;8.15;;;;;;;22.50;66.13;100029.56;172689;28;852;-63
2022/08/15 00:29:51;;;;;;;8.97;8.10;;;;;;;22.52;66.17;100038.22;172735;28;836;-63
2022/08/15 00:29:57;;;;;;;9.50;8.18;;;;;;;22.53;66.09;100037.22;172753;28;953;-62
2022/08/15 00:30:08;;;;;;;10.70;8.23;;;;;;;22.54;66.23;100035.41;172762;28;963;-62
2022/08/15 00:30:13;;;;;;;11.42;8.46;;;;;;;22.48;66.39;100034.22;172747;28;1242;-62
2022/08/15 00:30:19;;;;;;;11.17;8.70;;;;;;;22.47;66.31;100035.19;172816;28;844;-62
2022/08/15 00:30:24;;;;;;;10.10;8.65;;;;;;;22.49;66.33;100033.22;172746;28;1066;-62
2022/08/15 00:30:30;;;;;;;9.50;8.57;;;;;;;22.51;65.93;100033.88;172771;28;875;-62
2022/08/15 00:30:38;;;;;;;9.50;8.60;;;;;;;22.53;65.88;100037.22;172825;28;907;-62
2022/08/15 00:30:45;;;;;;;9.52;8.58;;;;;;;22.56;65.82;100039.59;172821;28;969;-62
2022/08/15 00:30:50;;;;;;;9.83;8.70;;;;;;;22.57;65.81;100035.94;172755;28;1077;-62
2022/08/15 00:30:56;;;;;;;9.87;8.70;;;;;;;22.59;65.62;100038.44;172778;28;899;-62
2022/08/15 00:31:06;;;;;;;9.88;8.85;;;;;;;22.60;65.53;100034.75;172802;28;923;-62
2022/08/15 00:31:13;;;;;;;9.74;8.74;;;;;;;22.63;65.74;100034.44;172760;28;1290;-62
2022/08/15 00:31:18;;;;;;;9.37;8.47;;;;;;;22.63;65.76;100035.28;172816;28;907;-62
2022/08/15 00:31:23;;;;;;;9.15;8.32;;;;;;;22.63;65.56;100037.94;172749;28;1054;-62
2022/08/15 00:31:33;;;;;;;9.20;8.30;;;;;;;22.64;65.54;100031.63;172803;28;867;-62
2022/08/15 00:31:40;;;;;;;9.26;8.35;;;;;;;22.59;66.13;100033.94;172836;28;1129;-63
2022/08/15 00:31:46;;;;;;;9.30;8.30;;;;;;;22.59;65.99;100035.75;172784;28;907;-63
2022/08/15 00:31:55;;;;;;;9.37;8.30;;;;;;;22.60;65.98;100035.59;172832;28;1160;-63
2022/08/15 00:32:04;;;;;;;9.24;8.26;;;;;;;22.63;65.91;100031.78;172770;28;1138;-62
2022/08/15 00:32:18;;;;;;;9.96;8.34;;;;;;;22.64;65.68;100030.78;172765;28;1169;-63
2022/08/15 00:32:24;;;;;;;10.55;8.43;;;;;;;22.66;65.63;100035.94;172759;28;1239;-63
2022/08/15 00:32:32;;;;;;;10.03;8.53;;;;;;;22.66;65.59;100033.28;172803;28;1097;-63
2022/08/15 00:32:38;;;;;;;9.56;8.50;;;;;;;22.64;65.58;100034.28;172813;28;1313;-62
2022/08/15 00:32:55;;;;;;;9.50;8.48;;;;;;;22.58;65.90;100034.91;173342;28;998;-62
2022/08/15 00:33:01;;;;;;;10.09;8.66;;;;;;;22.59;65.48;100033.09;173371;28;1223;-62
2022/08/15 00:33:07;;;;;;;10.27;8.57;;;;;;;22.60;65.64;100038.25;173427;28;1077;-62
2022/08/15 00:33:15;;;;;;;9.55;8.55;;;;;;;22.62;65.54;100038.91;173410;28;975;-62
2022/08/15 00:33:21;;;;;;;9.64;8.48;;;;;;;22.62;65.57;100036.25;173412;28;1013;-62
2022/08/15 00:33:28;;;;;;;9.47;8.40;;;;;;;22.63;65.49;100040.59;173442;28;1070;-62
2022/08/15 00:33:34;;;;;;;9.56;8.30;;;;;;;22.64;65.52;100038.75;173435;28;998;-62
2022/08/15 00:33:40;;;;;;;10.27;8.50;;;;;;;22.64;65.49;100030.78;173425;28;1089;-62
2022/08/15 00:33:45;;;;;;;10.82;8.82;;;;;;;22.67;65.45;100042.91;173351;28;895;-62
2022/08/15 00:33:51;;;;;;;9.83;8.73;;;;;;;22.66;65.48;100039.44;173446;28;847;-62
2022/08/15 00:33:59;;;;;;;9.68;8.65;;;;;;;22.68;65.41;100041.94;173417;28;796;-62
2022/08/15 00:34:04;;;;;;;9.70;8.70;;;;;;;22.68;65.56;100040.09;173458;28;879;-62
2022/08/15 00:34:13;;;;;;;9.50;8.53;;;;;;;22.67;65.49;100037.59;173417;28;1037;-62
2022/08/15 00:34:18;;;;;;;9.10;8.20;;;;;;;22.67;65.50;100040.25;173318;28;1429;-62
2022/08/15 00:34:24;;;;;;;9.60;8.20;;;;;;;22.66;65.67;100038.59;173424;28;993;-63
2022/08/15 00:34:29;;;;;;;9.48;8.35;;;;;;;22.67;65.47;100034.94;173429;28;926;-62
2022/08/15 00:34:35;;;;;;;9.20;8.27;;;;;;;22.67;65.64;100040.25;172698;28;1289;-63
2022/08/15 00:34:40;;;;;;;9.20;8.30;;;;;;;22.67;65.71;100040.25;172766;28;859;-62
2022/08/15 00:34:46;;;;;;;9.30;8.40;;;;;;;22.68;65.55;100036.63;172752;28;891;-62
2022/08/15 00:34:51;;;;;;;9.25;8.40;;;;;;;22.68;65.58;100041.94;172753;28;899;-62
2022/08/15 00:34:57;;;;;;;9.10;8.30;;;;;;;22.69;65.43;100040.94;172739;28;962;-62
2022/08/15 00:35:35;;;;;;;9.10;8.20;;;;;;;22.68;65.71;100037.44;172682;28;1010;-62
2022/08/15 00:35:37;;;;;;;9.70;8.27;;;;;;;22.41;67.20;100035.88;172605;28;1240;-63
2022/08/15 00:35:46;;;;;;;9.80;8.67;;;;;;;22.34;67.28;100036.50;172711;28;982;-64
2022/08/15 00:35:52;;;;;;;9.57;8.67;;;;;;;22.40;67.04;100036.88;172720;28;1060;-63
2022/08/15 00:35:58;;;;;;;9.63;8.73;;;;;;;22.40;67.21;100028.91;172750;28;1211;-62
2022/08/15 00:36:05;;;;;;;9.60;8.70;;;;;;;22.36;67.70;100034.53;172736;28;986;-62
2022/08/15 00:36:10;;;;;;;9.68;8.73;;;;;;;22.41;66.96;100035.88;172729;28;986;-63
2022/08/15 00:36:16;;;;;;;9.63;8.63;;;;;;;22.45;66.79;100038.06;172749;28;864;-62
2022/08/15 00:36:21;;;;;;;9.57;8.57;;;;;;;22.48;66.75;100032.38;172736;28;990;-62
2022/08/15 00:36:30;;;;;;;9.53;8.57;;;;;;;22.50;66.68;100034.88;172718;28;903;-62